Callawassie Island, South Carolina
Current Conditions -  °F | °C
As of 8:50 AM on Friday 19 Dec 2014 (Local Time) from KHXD Reporting Station
Few Clouds Few Clouds  
Wind Chill: 50°   Ceiling: Unl
Heat Index: 50°   Visibility: 10mi
Dew Point: 43°   Wind: 3mph
Humidity: 76%   Direction: 340°NNW
Pressure: 30.16"   Gusts: NA
Location:  32.3283°N, 80.8483°W
Report Text: KHXD 191350Z 34003KT 10SM FEW220 10/06 A3016
Loading
Personal Weather Stations






























Interactive Weather Map New forecast layout! Learn more

10-Day Weather Forecast

Advertisements
Track Severe Weather on mobile